sensor_id;sensor_type;location;lat;lon;timestamp;pressure;altitude;pressure_sealevel;temperature
13497;BMP180;6820;49.374;8.452;2023-04-06T00:03:23;100907.50;;;12.25
13497;BMP180;6820;49.374;8.452;2023-04-06T00:07:25;100897.47;;;12.14
13497;BMP180;6820;49.374;8.452;2023-04-06T00:11:27;100902.56;;;12.01
13497;BMP180;6820;49.374;8.452;2023-04-06T00:15:29;100910.38;;;11.91
13497;BMP180;6820;49.374;8.452;2023-04-06T00:19:30;100906.88;;;11.89
13497;BMP180;6820;49.374;8.452;2023-04-06T00:23:32;100903.19;;;11.84
13497;BMP180;6820;49.374;8.452;2023-04-06T00:27:34;100900.44;;;11.81
13497;BMP180;6820;49.374;8.452;2023-04-06T00:31:35;100892.72;;;11.80
13497;BMP180;6820;49.374;8.452;2023-04-06T00:35:37;100893.41;;;11.77
13497;BMP180;6820;49.374;8.452;2023-04-06T00:39:40;100888.94;;;11.73
13497;BMP180;6820;49.374;8.452;2023-04-06T00:43:41;100883.84;;;11.73
13497;BMP180;6820;49.374;8.452;2023-04-06T00:47:43;100888.25;;;11.76
13497;BMP180;6820;49.374;8.452;2023-04-06T00:51:45;100875.53;;;11.76
13497;BMP180;6820;49.374;8.452;2023-04-06T00:55:47;100883.91;;;11.75
13497;BMP180;6820;49.374;8.452;2023-04-06T00:59:49;100872.50;;;11.68
13497;BMP180;6820;49.374;8.452;2023-04-06T01:03:52;100869.66;;;11.64
13497;BMP180;6820;49.374;8.452;2023-04-06T01:07:55;100864.41;;;11.61
13497;BMP180;6820;49.374;8.452;2023-04-06T01:12:00;100866.06;;;11.60
13497;BMP180;6820;49.374;8.452;2023-04-06T01:16:05;100864.41;;;11.61
13497;BMP180;6820;49.374;8.452;2023-04-06T01:20:19;100863.53;;;11.60
13497;BMP180;6820;49.374;8.452;2023-04-06T01:24:21;100858.47;;;11.60
13497;BMP180;6820;49.374;8.452;2023-04-06T01:28:39;100861.00;;;11.60
13497;BMP180;6820;49.374;8.452;2023-04-06T01:32:56;100850.84;;;11.60
13497;BMP180;6820;49.374;8.452;2023-04-06T01:37:32;100851.53;;;11.58
13497;BMP180;6820;49.374;8.452;2023-04-06T01:41:37;100849.19;;;11.61
13497;BMP180;6820;49.374;8.452;2023-04-06T01:45:39;100845.84;;;11.62
13497;BMP180;6820;49.374;8.452;2023-04-06T01:49:49;100849.19;;;11.61
13497;BMP180;6820;49.374;8.452;2023-04-06T01:53:54;100843.13;;;11.59
13497;BMP180;6820;49.374;8.452;2023-04-06T01:58:03;100845.47;;;11.56
13497;BMP180;6820;49.374;8.452;2023-04-06T02:02:11;100841.84;;;11.53
13497;BMP180;6820;49.374;8.452;2023-04-06T02:06:18;100844.88;;;11.47
13497;BMP180;6820;49.374;8.452;2023-04-06T02:10:21;100843.03;;;11.45
13497;BMP180;6820;49.374;8.452;2023-04-06T02:14:25;100849.44;;;11.40
13497;BMP180;6820;49.374;8.452;2023-04-06T02:18:30;100847.28;;;11.20
13497;BMP180;6820;49.374;8.452;2023-04-06T02:22:32;100855.25;;;11.13
13497;BMP180;6820;49.374;8.452;2023-04-06T02:26:34;100854.84;;;11.07
13497;BMP180;6820;49.374;8.452;2023-04-06T02:30:35;100851.13;;;11.02
13497;BMP180;6820;49.374;8.452;2023-04-06T02:34:38;100842.34;;;10.97
13497;BMP180;6820;49.374;8.452;2023-04-06T02:38:40;100846.47;;;10.95
13497;BMP180;6820;49.374;8.452;2023-04-06T02:42:42;100836.09;;;10.93
13497;BMP180;6820;49.374;8.452;2023-04-06T02:46:45;100835.22;;;10.92
13497;BMP180;6820;49.374;8.452;2023-04-06T02:50:47;100831.91;;;10.93
13497;BMP180;6820;49.374;8.452;2023-04-06T02:54:49;100836.19;;;10.94
13497;BMP180;6820;49.374;8.452;2023-04-06T02:58:58;100830.94;;;10.91
13497;BMP180;6820;49.374;8.452;2023-04-06T03:03:03;100835.22;;;10.92
13497;BMP180;6820;49.374;8.452;2023-04-06T03:07:05;100833.47;;;10.91
13497;BMP180;6820;49.374;8.452;2023-04-06T03:11:11;100835.81;;;10.88
13497;BMP180;6820;49.374;8.452;2023-04-06T03:15:15;100827.34;;;10.88
13497;BMP180;6820;49.374;8.452;2023-04-06T03:19:22;100833.06;;;10.85
13497;BMP180;6820;49.374;8.452;2023-04-06T03:23:24;100836.28;;;10.83
13497;BMP180;6820;49.374;8.452;2023-04-06T03:27:31;100832.63;;;10.79
13497;BMP180;6820;49.374;8.452;2023-04-06T03:31:36;100839.38;;;10.79
13497;BMP180;6820;49.374;8.452;2023-04-06T03:35:53;100841.72;;;10.76
13497;BMP180;6820;49.374;8.452;2023-04-06T03:39:58;100841.63;;;10.74
13497;BMP180;6820;49.374;8.452;2023-04-06T03:44:00;100850.66;;;10.71
13497;BMP180;6820;49.374;8.452;2023-04-06T03:48:01;100847.16;;;10.69
13497;BMP180;6820;49.374;8.452;2023-04-06T03:52:06;100848.50;;;10.64
13497;BMP180;6820;49.374;8.452;2023-04-06T03:56:08;100859.41;;;10.63
13497;BMP180;6820;49.374;8.452;2023-04-06T04:00:10;100864.38;;;10.62
13497;BMP180;6820;49.374;8.452;2023-04-06T04:04:15;100862.53;;;10.59
13497;BMP180;6820;49.374;8.452;2023-04-06T04:08:16;100869.25;;;10.59
13497;BMP180;6820;49.374;8.452;2023-04-06T04:12:18;100866.19;;;10.51
13497;BMP180;6820;49.374;8.452;2023-04-06T04:16:20;100863.13;;;10.44
13497;BMP180;6820;49.374;8.452;2023-04-06T04:20:22;100872.19;;;10.40
13497;BMP180;6820;49.374;8.452;2023-04-06T04:24:23;100872.06;;;10.39
13497;BMP180;6820;49.374;8.452;2023-04-06T04:28:25;100870.19;;;10.36
13497;BMP180;6820;49.374;8.452;2023-04-06T04:32:29;100876.16;;;10.37
13497;BMP180;6820;49.374;8.452;2023-04-06T04:36:34;100872.84;;;10.38
13497;BMP180;6820;49.374;8.452;2023-04-06T04:40:40;100876.25;;;10.38
13497;BMP180;6820;49.374;8.452;2023-04-06T04:44:43;100869.13;;;10.33
13497;BMP180;6820;49.374;8.452;2023-04-06T04:48:45;100874.56;;;10.26
13497;BMP180;6820;49.374;8.452;2023-04-06T04:52:48;100878.41;;;10.21
13497;BMP180;6820;49.374;8.452;2023-04-06T04:56:58;100875.69;;;10.18
13497;BMP180;6820;49.374;8.452;2023-04-06T05:01:11;100883.94;;;10.16
13497;BMP180;6820;49.374;8.452;2023-04-06T05:05:15;100879.41;;;10.12
13497;BMP180;6820;49.374;8.452;2023-04-06T05:09:17;100882.75;;;10.11
13497;BMP180;6820;49.374;8.452;2023-04-06T05:13:19;100886.81;;;10.09
13497;BMP180;6820;49.374;8.452;2023-04-06T05:17:23;100886.16;;;10.11
13497;BMP180;6820;49.374;8.452;2023-04-06T05:21:25;100887.81;;;10.11
13497;BMP180;6820;49.374;8.452;2023-04-06T05:25:33;100893.31;;;10.05
13497;BMP180;6820;49.374;8.452;2023-04-06T05:29:45;100893.09;;;10.03
13497;BMP180;6820;49.374;8.452;2023-04-06T05:33:49;100898.91;;;10.02
13497;BMP180;6820;49.374;8.452;2023-04-06T05:37:59;100893.09;;;10.03
13497;BMP180;6820;49.374;8.452;2023-04-06T05:42:04;100896.59;;;10.04
13497;BMP180;6820;49.374;8.452;2023-04-06T05:46:21;100902.56;;;10.05
13497;BMP180;6820;49.374;8.452;2023-04-06T05:50:23;100899.59;;;10.10
13497;BMP180;6820;49.374;8.452;2023-04-06T05:54:25;100902.84;;;10.21
13497;BMP180;6820;49.374;8.452;2023-04-06T05:58:33;100906.56;;;10.26
13497;BMP180;6820;49.374;8.452;2023-04-06T06:02:36;100900.09;;;10.29
13497;BMP180;6820;49.374;8.452;2023-04-06T06:06:38;100896.09;;;10.33
13497;BMP180;6820;49.374;8.452;2023-04-06T06:10:52;100894.56;;;10.34
13497;BMP180;6820;49.374;8.452;2023-04-06T06:14:57;100903.47;;;10.41
13497;BMP180;6820;49.374;8.452;2023-04-06T06:19:00;100898.34;;;10.52
13497;BMP180;6820;49.374;8.452;2023-04-06T06:23:03;100903.84;;;10.58
13497;BMP180;6820;49.374;8.452;2023-04-06T06:27:05;100902.50;;;10.63
13497;BMP180;6820;49.374;8.452;2023-04-06T06:31:10;100904.88;;;10.73
13497;BMP180;6820;49.374;8.452;2023-04-06T06:35:12;100906.53;;;10.72
13497;BMP180;6820;49.374;8.452;2023-04-06T06:39:14;100899.59;;;10.70
13497;BMP180;6820;49.374;8.452;2023-04-06T06:43:16;100895.81;;;10.76
13497;BMP180;6820;49.374;8.452;2023-04-06T06:47:25;100905.41;;;10.80
13497;BMP180;6820;49.374;8.452;2023-04-06T06:51:27;100904.16;;;10.87
13497;BMP180;6820;49.374;8.452;2023-04-06T06:55:29;100913.63;;;10.89
13497;BMP180;6820;49.374;8.452;2023-04-06T06:59:31;100903.69;;;10.92
13497;BMP180;6820;49.374;8.452;2023-04-06T07:03:34;100895.97;;;10.91
13497;BMP180;6820;49.374;8.452;2023-04-06T07:07:36;100890.13;;;10.92
13497;BMP180;6820;49.374;8.452;2023-04-06T07:11:37;100898.81;;;10.95
13497;BMP180;6820;49.374;8.452;2023-04-06T07:15:39;100901.50;;;11.09
13497;BMP180;6820;49.374;8.452;2023-04-06T07:19:41;100894.19;;;11.14
13497;BMP180;6820;49.374;8.452;2023-04-06T07:23:43;100902.22;;;11.20
13497;BMP180;6820;49.374;8.452;2023-04-06T07:27:45;100906.72;;;11.36
13497;BMP180;6820;49.374;8.452;2023-04-06T07:31:47;100904.81;;;11.45
13497;BMP180;6820;49.374;8.452;2023-04-06T07:35:50;100907.25;;;11.56
13497;BMP180;6820;49.374;8.452;2023-04-06T07:39:53;100904.72;;;11.69
13497;BMP180;6820;49.374;8.452;2023-04-06T07:43:55;100907.28;;;11.82
13497;BMP180;6820;49.374;8.452;2023-04-06T07:47:57;100910.38;;;11.91
13497;BMP180;6820;49.374;8.452;2023-04-06T07:52:01;100906.22;;;11.91
13497;BMP180;6820;49.374;8.452;2023-04-06T07:56:05;100903.16;;;11.97
13497;BMP180;6820;49.374;8.452;2023-04-06T08:00:07;100897.59;;;12.02
13497;BMP180;6820;49.374;8.452;2023-04-06T08:04:14;100898.03;;;12.22
13497;BMP180;6820;49.374;8.452;2023-04-06T08:08:15;100899.75;;;12.36
13497;BMP180;6820;49.374;8.452;2023-04-06T08:12:17;100904.50;;;12.45
13497;BMP180;6820;49.374;8.452;2023-04-06T08:16:19;100900.09;;;12.55
13497;BMP180;6820;49.374;8.452;2023-04-06T08:20:21;100898.31;;;12.67
13497;BMP180;6820;49.374;8.452;2023-04-06T08:24:22;100893.56;;;12.85
13497;BMP180;6820;49.374;8.452;2023-04-06T08:28:24;100888.66;;;13.03
13497;BMP180;6820;49.374;8.452;2023-04-06T08:32:25;100899.66;;;13.16
13497;BMP180;6820;49.374;8.452;2023-04-06T08:36:27;100908.06;;;13.29
13497;BMP180;6820;49.374;8.452;2023-04-06T08:40:29;100891.59;;;13.37
13497;BMP180;6820;49.374;8.452;2023-04-06T08:44:32;100889.81;;;13.50
13497;BMP180;6820;49.374;8.452;2023-04-06T08:48:34;100887.34;;;13.66
13497;BMP180;6820;49.374;8.452;2023-04-06T08:52:36;100882.91;;;13.78
13497;BMP180;6820;49.374;8.452;2023-04-06T08:56:39;100874.41;;;13.92
13497;BMP180;6820;49.374;8.452;2023-04-06T09:00:41;100874.13;;;14.01
13497;BMP180;6820;49.374;8.452;2023-04-06T09:04:46;100874.81;;;14.13
13497;BMP180;6820;49.374;8.452;2023-04-06T09:08:49;100873.22;;;14.31
13497;BMP180;6820;49.374;8.452;2023-04-06T09:12:51;100877.72;;;14.51
13497;BMP180;6820;49.374;8.452;2023-04-06T09:16:52;100875.19;;;14.66
13497;BMP180;6820;49.374;8.452;2023-04-06T09:21:07;100863.13;;;14.80
13497;BMP180;6820;49.374;8.452;2023-04-06T09:25:09;100860.31;;;14.91
13497;BMP180;6820;49.374;8.452;2023-04-06T09:29:22;100865.16;;;15.02
13497;BMP180;6820;49.374;8.452;2023-04-06T09:33:25;100864.16;;;15.15
13497;BMP180;6820;49.374;8.452;2023-04-06T09:37:27;100861.47;;;15.29
13497;BMP180;6820;49.374;8.452;2023-04-06T09:41:31;100858.78;;;15.43
13497;BMP180;6820;49.374;8.452;2023-04-06T09:45:33;100853.59;;;15.59
13497;BMP180;6820;49.374;8.452;2023-04-06T09:49:35;100844.94;;;15.73
13497;BMP180;6820;49.374;8.452;2023-04-06T09:53:38;100844.84;;;15.88
13497;BMP180;6820;49.374;8.452;2023-04-06T09:57:50;100839.56;;;16.03
13497;BMP180;6820;49.374;8.452;2023-04-06T10:01:55;100847.22;;;16.20
13497;BMP180;6820;49.374;8.452;2023-04-06T10:06:04;100834.31;;;16.36
13497;BMP180;6820;49.374;8.452;2023-04-06T10:10:07;100835.16;;;16.53
13497;BMP180;6820;49.374;8.452;2023-04-06T10:14:09;100828.88;;;16.66
13497;BMP180;6820;49.374;8.452;2023-04-06T10:18:13;100827.53;;;16.74
13497;BMP180;6820;49.374;8.452;2023-04-06T10:22:24;100823.94;;;16.89
13497;BMP180;6820;49.374;8.452;2023-04-06T10:26:28;100831.25;;;17.00
13497;BMP180;6820;49.374;8.452;2023-04-06T10:30:29;100820.75;;;17.13
13497;BMP180;6820;49.374;8.452;2023-04-06T10:34:35;100819.91;;;17.33
13497;BMP180;6820;49.374;8.452;2023-04-06T10:38:38;100825.13;;;17.56
13497;BMP180;6820;49.374;8.452;2023-04-06T10:42:42;100814.13;;;17.80
13497;BMP180;6820;49.374;8.452;2023-04-06T10:46:55;100819.16;;;17.98
13497;BMP180;6820;49.374;8.452;2023-04-06T10:50:57;100811.78;;;18.06
13497;BMP180;6820;49.374;8.452;2023-04-06T10:54:58;100813.78;;;18.13
13497;BMP180;6820;49.374;8.452;2023-04-06T10:59:00;100813.53;;;18.29
13497;BMP180;6820;49.374;8.452;2023-04-06T11:03:02;100797.19;;;18.50
13497;BMP180;6820;49.374;8.452;2023-04-06T11:07:04;100782.94;;;18.81
13497;BMP180;6820;49.374;8.452;2023-04-06T11:11:09;100779.88;;;19.15
13497;BMP180;6820;49.374;8.452;2023-04-06T11:15:11;100775.53;;;19.39
13497;BMP180;6820;49.374;8.452;2023-04-06T11:19:12;100774.72;;;19.66
13497;BMP180;6820;49.374;8.452;2023-04-06T11:23:22;100767.03;;;19.93
13497;BMP180;6820;49.374;8.452;2023-04-06T11:27:24;100758.13;;;20.12
13497;BMP180;6820;49.374;8.452;2023-04-06T11:31:26;100757.22;;;20.10
13497;BMP180;6820;49.374;8.452;2023-04-06T11:35:30;100750.66;;;20.19
13497;BMP180;6820;49.374;8.452;2023-04-06T11:43:47;100745.50;;;20.19
13497;BMP180;6820;49.374;8.452;2023-04-06T11:47:57;100728.88;;;20.37
13497;BMP180;6820;49.374;8.452;2023-04-06T11:52:02;100732.75;;;20.52
13497;BMP180;6820;49.374;8.452;2023-04-06T11:56:04;100733.78;;;20.59
13497;BMP180;6820;49.374;8.452;2023-04-06T12:00:08;100724.28;;;20.88
13497;BMP180;6820;49.374;8.452;2023-04-06T12:04:10;100713.06;;;21.20
13497;BMP180;6820;49.374;8.452;2023-04-06T12:08:12;100700.38;;;21.29
13497;BMP180;6820;49.374;8.452;2023-04-06T12:12:14;100709.94;;;21.33
13497;BMP180;6820;49.374;8.452;2023-04-06T12:16:15;100706.38;;;21.29
13497;BMP180;6820;49.374;8.452;2023-04-06T12:20:17;100708.88;;;21.25
13497;BMP180;6820;49.374;8.452;2023-04-06T12:24:27;100710.66;;;21.27
13497;BMP180;6820;49.374;8.452;2023-04-06T12:28:30;100696.34;;;21.38
13497;BMP180;6820;49.374;8.452;2023-04-06T12:32:31;100700.19;;;21.56
13497;BMP180;6820;49.374;8.452;2023-04-06T12:36:33;100695.03;;;21.56
13497;BMP180;6820;49.374;8.452;2023-04-06T12:40:38;100685.13;;;21.38
13497;BMP180;6820;49.374;8.452;2023-04-06T12:44:40;100690.00;;;21.26
13497;BMP180;6820;49.374;8.452;2023-04-06T12:48:43;100692.63;;;21.27
13497;BMP180;6820;49.374;8.452;2023-04-06T12:52:47;100682.97;;;21.55
13497;BMP180;6820;49.374;8.452;2023-04-06T12:56:48;100677.66;;;21.87
13497;BMP180;6820;49.374;8.452;2023-04-06T13:00:50;100668.53;;;22.04
13497;BMP180;6820;49.374;8.452;2023-04-06T13:04:52;100663.63;;;22.14
13497;BMP180;6820;49.374;8.452;2023-04-06T13:08:54;100665.53;;;22.24
13497;BMP180;6820;49.374;8.452;2023-04-06T13:12:56;100651.84;;;22.28
13497;BMP180;6820;49.374;8.452;2023-04-06T13:16:57;100665.50;;;22.21
13497;BMP180;6820;49.374;8.452;2023-04-06T13:20:59;100653.28;;;22.13
13497;BMP180;6820;49.374;8.452;2023-04-06T13:25:01;100662.81;;;22.15
13497;BMP180;6820;49.374;8.452;2023-04-06T13:29:02;100656.84;;;22.19
13497;BMP180;6820;49.374;8.452;2023-04-06T13:33:04;100650.81;;;22.19
13497;BMP180;6820;49.374;8.452;2023-04-06T13:37:07;100645.84;;;22.29
13497;BMP180;6820;49.374;8.452;2023-04-06T13:41:09;100649.41;;;22.34
13497;BMP180;6820;49.374;8.452;2023-04-06T13:45:11;100649.44;;;22.37
13497;BMP180;6820;49.374;8.452;2023-04-06T13:49:13;100643.38;;;22.35
13497;BMP180;6820;49.374;8.452;2023-04-06T13:53:15;100636.44;;;22.31
13497;BMP180;6820;49.374;8.452;2023-04-06T13:57:17;100639.03;;;22.32
13497;BMP180;6820;49.374;8.452;2023-04-06T14:01:18;100637.41;;;22.39
13497;BMP180;6820;49.374;8.452;2023-04-06T14:05:20;100640.06;;;22.42
13497;BMP180;6820;49.374;8.452;2023-04-06T14:09:22;100639.16;;;22.41
13497;BMP180;6820;49.374;8.452;2023-04-06T14:13:24;100632.19;;;22.34
13497;BMP180;6820;49.374;8.452;2023-04-06T14:17:25;100638.06;;;22.26
13497;BMP180;6820;49.374;8.452;2023-04-06T14:21:27;100633.91;;;22.34
13497;BMP180;6820;49.374;8.452;2023-04-06T14:25:29;100632.19;;;22.36
13497;BMP180;6820;49.374;8.452;2023-04-06T14:29:32;100627.06;;;22.39
13497;BMP180;6820;49.374;8.452;2023-04-06T14:33:34;100623.81;;;22.47
13497;BMP180;6820;49.374;8.452;2023-04-06T14:37:36;100620.50;;;22.56
13497;BMP180;6820;49.374;8.452;2023-04-06T14:41:38;100602.44;;;22.56
13497;BMP180;6820;49.374;8.452;2023-04-06T14:45:39;100622.25;;;22.57
13497;BMP180;6820;49.374;8.452;2023-04-06T14:49:41;100618.78;;;22.58
13497;BMP180;6820;49.374;8.452;2023-04-06T14:53:43;100607.59;;;22.56
13497;BMP180;6820;49.374;8.452;2023-04-06T14:57:45;100604.25;;;22.61
13497;BMP180;6820;49.374;8.452;2023-04-06T15:01:46;100596.50;;;22.62
13497;BMP180;6820;49.374;8.452;2023-04-06T15:05:48;100598.34;;;22.69
13497;BMP180;6820;49.374;8.452;2023-04-06T15:09:50;100596.63;;;22.70
13497;BMP180;6820;49.374;8.452;2023-04-06T15:13:51;100605.16;;;22.63
13497;BMP180;6820;49.374;8.452;2023-04-06T15:17:53;100603.19;;;22.52
13497;BMP180;6820;49.374;8.452;2023-04-06T15:21:54;100604.81;;;22.45
13497;BMP180;6820;49.374;8.452;2023-04-06T15:25:57;100594.53;;;22.48
13497;BMP180;6820;49.374;8.452;2023-04-06T15:29:59;100599.47;;;22.35
13497;BMP180;6820;49.374;8.452;2023-04-06T15:34:00;100606.16;;;22.24
13497;BMP180;6820;49.374;8.452;2023-04-06T15:38:02;100599.13;;;22.16
13497;BMP180;6820;49.374;8.452;2023-04-06T15:42:04;100603.28;;;22.08
13497;BMP180;6820;49.374;8.452;2023-04-06T15:46:05;100601.97;;;21.87
13497;BMP180;6820;49.374;8.452;2023-04-06T15:50:08;100607.44;;;21.61
13497;BMP180;6820;49.374;8.452;2023-04-06T15:54:10;100601.25;;;21.53
13497;BMP180;6820;49.374;8.452;2023-04-06T15:58:12;100624.22;;;21.42
13497;BMP180;6820;49.374;8.452;2023-04-06T16:02:13;100610.94;;;21.25
13497;BMP180;6820;49.374;8.452;2023-04-06T16:06:15;100620.22;;;21.18
13497;BMP180;6820;49.374;8.452;2023-04-06T16:10:17;100611.59;;;21.16
13497;BMP180;6820;49.374;8.452;2023-04-06T16:14:18;100622.78;;;21.17
13497;BMP180;6820;49.374;8.452;2023-04-06T16:18:20;100614.88;;;21.11
13497;BMP180;6820;49.374;8.452;2023-04-06T16:22:21;100612.91;;;21.00
13497;BMP180;6820;49.374;8.452;2023-04-06T16:26:23;100612.69;;;20.91
13497;BMP180;6820;49.374;8.452;2023-04-06T16:30:25;100625.31;;;20.80
13497;BMP180;6820;49.374;8.452;2023-04-06T16:34:31;100623.91;;;20.58
13497;BMP180;6820;49.374;8.452;2023-04-06T16:38:33;100627.63;;;20.38
13497;BMP180;6820;49.374;8.452;2023-04-06T16:42:36;100641.09;;;20.28
13497;BMP180;6820;49.374;8.452;2023-04-06T16:46:38;100638.28;;;20.19
13497;BMP180;6820;49.374;8.452;2023-04-06T16:50:40;100626.09;;;20.13
13497;BMP180;6820;49.374;8.452;2023-04-06T16:54:41;100632.22;;;20.17
13497;BMP180;6820;49.374;8.452;2023-04-06T16:58:43;100630.47;;;20.16
13497;BMP180;6820;49.374;8.452;2023-04-06T17:02:46;100634.16;;;19.94
13497;BMP180;6820;49.374;8.452;2023-04-06T17:06:48;100639.22;;;19.92
13497;BMP180;6820;49.374;8.452;2023-04-06T17:10:50;100631.38;;;19.88
13497;BMP180;6820;49.374;8.452;2023-04-06T17:15:03;100634.88;;;19.90
13497;BMP180;6820;49.374;8.452;2023-04-06T17:19:05;100644.84;;;19.80
13497;BMP180;6820;49.374;8.452;2023-04-06T17:23:06;100644.75;;;19.75
13497;BMP180;6820;49.374;8.452;2023-04-06T17:27:08;100647.16;;;19.72
13497;BMP180;6820;49.374;8.452;2023-04-06T17:31:10;100649.63;;;19.68
13497;BMP180;6820;49.374;8.452;2023-04-06T17:35:12;100649.63;;;19.68
13497;BMP180;6820;49.374;8.452;2023-04-06T17:39:14;100651.72;;;19.52
13497;BMP180;6820;49.374;8.452;2023-04-06T17:43:15;100654.91;;;19.45
13497;BMP180;6820;49.374;8.452;2023-04-06T17:47:17;100659.09;;;19.41
13497;BMP180;6820;49.374;8.452;2023-04-06T17:51:19;100671.72;;;19.34
13497;BMP180;6820;49.374;8.452;2023-04-06T17:55:21;100669.84;;;19.28
13497;BMP180;6820;49.374;8.452;2023-04-06T17:59:23;100677.28;;;19.21
13497;BMP180;6820;49.374;8.452;2023-04-06T18:03:25;100690.72;;;19.13
13497;BMP180;6820;49.374;8.452;2023-04-06T18:07:26;100699.03;;;19.04
13497;BMP180;6820;49.374;8.452;2023-04-06T18:11:28;100709.72;;;18.92
13497;BMP180;6820;49.374;8.452;2023-04-06T18:15:33;100710.00;;;18.76
13497;BMP180;6820;49.374;8.452;2023-04-06T18:19:35;100713.69;;;18.59
13497;BMP180;6820;49.374;8.452;2023-04-06T18:23:37;100725.84;;;18.40
13497;BMP180;6820;49.374;8.452;2023-04-06T18:27:39;100727.50;;;18.38
13497;BMP180;6820;49.374;8.452;2023-04-06T18:31:40;100733.69;;;18.44
13497;BMP180;6820;49.374;8.452;2023-04-06T18:35:44;100742.50;;;18.28
13497;BMP180;6820;49.374;8.452;2023-04-06T18:39:45;100737.81;;;18.16
13497;BMP180;6820;49.374;8.452;2023-04-06T18:43:47;100748.00;;;18.15
13497;BMP180;6820;49.374;8.452;2023-04-06T18:47:49;100751.06;;;18.05
13497;BMP180;6820;49.374;8.452;2023-04-06T18:51:51;100753.97;;;17.92
13497;BMP180;6820;49.374;8.452;2023-04-06T18:55:57;100751.06;;;17.83
13497;BMP180;6820;49.374;8.452;2023-04-06T19:00:00;100756.22;;;17.85
13497;BMP180;6820;49.374;8.452;2023-04-06T19:04:03;100757.81;;;17.81
13497;BMP180;6820;49.374;8.452;2023-04-06T19:08:05;100763.56;;;17.76
13497;BMP180;6820;49.374;8.452;2023-04-06T19:12:07;100766.16;;;17.76
13497;BMP180;6820;49.374;8.452;2023-04-06T19:16:09;100764.66;;;17.82
13497;BMP180;6820;49.374;8.452;2023-04-06T19:20:11;100762.97;;;17.83
13497;BMP180;6820;49.374;8.452;2023-04-06T19:24:13;100774.34;;;17.89
13497;BMP180;6820;49.374;8.452;2023-04-06T19:28:14;100775.31;;;17.91
13497;BMP180;6820;49.374;8.452;2023-04-06T19:32:16;100779.59;;;17.92
13497;BMP180;6820;49.374;8.452;2023-04-06T19:36:18;100764.22;;;17.92
13497;BMP180;6820;49.374;8.452;2023-04-06T19:40:20;100771.91;;;17.92
13497;BMP180;6820;49.374;8.452;2023-04-06T19:44:22;100763.38;;;17.93
13497;BMP180;6820;49.374;8.452;2023-04-06T19:48:24;100768.47;;;17.92
13497;BMP180;6820;49.374;8.452;2023-04-06T19:52:26;100767.34;;;17.85
13497;BMP180;6820;49.374;8.452;2023-04-06T19:56:29;100770.66;;;17.83
13497;BMP180;6820;49.374;8.452;2023-04-06T20:00:31;100762.97;;;17.83
13497;BMP180;6820;49.374;8.452;2023-04-06T20:04:33;100767.94;;;17.78
13497;BMP180;6820;49.374;8.452;2023-04-06T20:08:35;100767.84;;;17.75
13497;BMP180;6820;49.374;8.452;2023-04-06T20:12:37;100769.47;;;17.73
13497;BMP180;6820;49.374;8.452;2023-04-06T20:16:39;100768.41;;;17.68
13497;BMP180;6820;49.374;8.452;2023-04-06T20:20:41;100769.16;;;17.66
13497;BMP180;6820;49.374;8.452;2023-04-06T20:24:45;100756.31;;;17.65
13497;BMP180;6820;49.374;8.452;2023-04-06T20:28:46;100755.25;;;17.60
13497;BMP180;6820;49.374;8.452;2023-04-06T20:32:48;100756.00;;;17.57
13497;BMP180;6820;49.374;8.452;2023-04-06T20:36:50;100755.88;;;17.54
13497;BMP180;6820;49.374;8.452;2023-04-06T20:40:52;100753.97;;;17.49
13497;BMP180;6820;49.374;8.452;2023-04-06T20:44:54;100753.06;;;17.48
13497;BMP180;6820;49.374;8.452;2023-04-06T20:48:57;100748.66;;;17.44
13497;BMP180;6820;49.374;8.452;2023-04-06T20:52:59;100742.56;;;17.42
13497;BMP180;6820;49.374;8.452;2023-04-06T20:57:01;100744.84;;;17.35
13497;BMP180;6820;49.374;8.452;2023-04-06T21:01:03;100735.22;;;17.30
13497;BMP180;6820;49.374;8.452;2023-04-06T21:05:05;100725.69;;;17.26
13497;BMP180;6820;49.374;8.452;2023-04-06T21:09:06;100727.06;;;17.18
13497;BMP180;6820;49.374;8.452;2023-04-06T21:13:08;100730.84;;;17.07
13497;BMP180;6820;49.374;8.452;2023-04-06T21:17:10;100720.38;;;17.01
13497;BMP180;6820;49.374;8.452;2023-04-06T21:21:12;100714.22;;;16.98
13497;BMP180;6820;49.374;8.452;2023-04-06T21:25:13;100711.53;;;16.95
13497;BMP180;6820;49.374;8.452;2023-04-06T21:29:15;100711.28;;;16.89
13497;BMP180;6820;49.374;8.452;2023-04-06T21:33:17;100703.50;;;16.86
13497;BMP180;6820;49.374;8.452;2023-04-06T21:37:19;100698.25;;;16.83
13497;BMP180;6820;49.374;8.452;2023-04-06T21:41:20;100698.81;;;16.76
13497;BMP180;6820;49.374;8.452;2023-04-06T21:45:22;100684.69;;;16.65
13497;BMP180;6820;49.374;8.452;2023-04-06T21:49:23;100686.25;;;16.62
13497;BMP180;6820;49.374;8.452;2023-04-06T21:53:25;100688.00;;;16.63
13497;BMP180;6820;49.374;8.452;2023-04-06T21:57:27;100678.47;;;16.59
13497;BMP180;6820;49.374;8.452;2023-04-06T22:01:28;100679.28;;;16.58
13497;BMP180;6820;49.374;8.452;2023-04-06T22:05:30;100674.75;;;16.52
13497;BMP180;6820;49.374;8.452;2023-04-06T22:09:32;100668.53;;;16.46
13497;BMP180;6820;49.374;8.452;2023-04-06T22:13:34;100665.59;;;16.37
13497;BMP180;6820;49.374;8.452;2023-04-06T22:17:36;100662.91;;;16.34
13497;BMP180;6820;49.374;8.452;2023-04-06T22:21:38;100674.75;;;16.32
13497;BMP180;6820;49.374;8.452;2023-04-06T22:25:39;100661.97;;;16.32
13497;BMP180;6820;49.374;8.452;2023-04-06T22:29:41;100662.00;;;16.34
13497;BMP180;6820;49.374;8.452;2023-04-06T22:33:43;100657.06;;;16.37
13497;BMP180;6820;49.374;8.452;2023-04-06T22:37:44;100650.13;;;16.34
13497;BMP180;6820;49.374;8.452;2023-04-06T22:41:46;100659.31;;;16.31
13497;BMP180;6820;49.374;8.452;2023-04-06T22:45:47;100651.66;;;16.31
13497;BMP180;6820;49.374;8.452;2023-04-06T22:49:49;100657.66;;;16.31
13497;BMP180;6820;49.374;8.452;2023-04-06T22:53:50;100649.06;;;16.29
13497;BMP180;6820;49.374;8.452;2023-04-06T22:57:52;100647.34;;;16.30
13497;BMP180;6820;49.374;8.452;2023-04-06T23:01:54;100632.13;;;16.33
13497;BMP180;6820;49.374;8.452;2023-04-06T23:05:57;100643.19;;;16.32
13497;BMP180;6820;49.374;8.452;2023-04-06T23:09:58;100632.84;;;16.29
13497;BMP180;6820;49.374;8.452;2023-04-06T23:14:00;100629.38;;;16.28
13497;BMP180;6820;49.374;8.452;2023-04-06T23:18:02;100629.66;;;16.34
13497;BMP180;6820;49.374;8.452;2023-04-06T23:22:04;100632.97;;;16.32
13497;BMP180;6820;49.374;8.452;2023-04-06T23:26:05;100626.06;;;16.31